sensor_id;sensor_type;location;lat;lon;timestamp;temperature;humidity
24446;DHT22;13347;50.984;5.822;2023-03-26T00:01:58;8.70;1.00
24446;DHT22;13347;50.984;5.822;2023-03-26T00:04:25;8.70;1.00
24446;DHT22;13347;50.984;5.822;2023-03-26T00:06:52;8.70;1.00
24446;DHT22;13347;50.984;5.822;2023-03-26T00:09:20;8.80;1.00
24446;DHT22;13347;50.984;5.822;2023-03-26T00:11:47;8.70;1.00
24446;DHT22;13347;50.984;5.822;2023-03-26T00:14:14;8.60;1.00
24446;DHT22;13347;50.984;5.822;2023-03-26T00:16:42;8.50;9.70
24446;DHT22;13347;50.984;5.822;2023-03-26T00:19:11;8.50;28.20
24446;DHT22;13347;50.984;5.822;2023-03-26T00:21:38;8.60;25.60
24446;DHT22;13347;50.984;5.822;2023-03-26T00:24:07;8.50;47.50
24446;DHT22;13347;50.984;5.822;2023-03-26T00:26:35;8.50;59.10
24446;DHT22;13347;50.984;5.822;2023-03-26T00:29:02;8.50;1.00
24446;DHT22;13347;50.984;5.822;2023-03-26T00:31:29;8.60;1.00
24446;DHT22;13347;50.984;5.822;2023-03-26T00:33:56;8.60;1.00
24446;DHT22;13347;50.984;5.822;2023-03-26T00:36:29;8.50;1.00
24446;DHT22;13347;50.984;5.822;2023-03-26T00:38:55;8.60;1.00
24446;DHT22;13347;50.984;5.822;2023-03-26T00:41:23;8.60;1.00
24446;DHT22;13347;50.984;5.822;2023-03-26T00:43:51;8.60;1.00
24446;DHT22;13347;50.984;5.822;2023-03-26T00:46:20;8.60;1.00
24446;DHT22;13347;50.984;5.822;2023-03-26T00:48:47;8.70;1.00
24446;DHT22;13347;50.984;5.822;2023-03-26T00:51:15;8.60;1.00
24446;DHT22;13347;50.984;5.822;2023-03-26T00:53:44;8.50;1.00
24446;DHT22;13347;50.984;5.822;2023-03-26T00:56:12;8.50;1.00
24446;DHT22;13347;50.984;5.822;2023-03-26T00:58:39;8.60;1.00
24446;DHT22;13347;50.984;5.822;2023-03-26T01:01:07;8.70;99.90
24446;DHT22;13347;50.984;5.822;2023-03-26T01:03:34;8.70;99.90
24446;DHT22;13347;50.984;5.822;2023-03-26T01:06:02;8.70;99.90
24446;DHT22;13347;50.984;5.822;2023-03-26T01:08:33;8.70;99.90
24446;DHT22;13347;50.984;5.822;2023-03-26T01:11:03;8.80;99.90
24446;DHT22;13347;50.984;5.822;2023-03-26T01:13:32;8.80;99.90
24446;DHT22;13347;50.984;5.822;2023-03-26T01:16:00;9.00;24.40
24446;DHT22;13347;50.984;5.822;2023-03-26T01:18:28;9.10;1.00
24446;DHT22;13347;50.984;5.822;2023-03-26T01:20:59;9.20;1.00
24446;DHT22;13347;50.984;5.822;2023-03-26T01:23:32;9.10;1.00
24446;DHT22;13347;50.984;5.822;2023-03-26T01:26:04;9.20;1.00
24446;DHT22;13347;50.984;5.822;2023-03-26T01:28:33;9.30;1.00
24446;DHT22;13347;50.984;5.822;2023-03-26T01:31:07;9.40;1.00
24446;DHT22;13347;50.984;5.822;2023-03-26T01:33:38;9.40;1.00
24446;DHT22;13347;50.984;5.822;2023-03-26T01:36:09;9.50;1.00
24446;DHT22;13347;50.984;5.822;2023-03-26T01:38:42;9.50;1.00
24446;DHT22;13347;50.984;5.822;2023-03-26T01:41:15;9.40;1.00
24446;DHT22;13347;50.984;5.822;2023-03-26T01:43:44;9.40;1.00
24446;DHT22;13347;50.984;5.822;2023-03-26T01:46:12;9.40;1.00
24446;DHT22;13347;50.984;5.822;2023-03-26T01:48:41;9.30;1.00
24446;DHT22;13347;50.984;5.822;2023-03-26T01:51:09;9.30;1.00
24446;DHT22;13347;50.984;5.822;2023-03-26T01:53:37;9.30;1.00
24446;DHT22;13347;50.984;5.822;2023-03-26T01:56:08;9.30;1.00
24446;DHT22;13347;50.984;5.822;2023-03-26T01:58:39;9.40;1.00
24446;DHT22;13347;50.984;5.822;2023-03-26T02:01:11;9.60;1.00
24446;DHT22;13347;50.984;5.822;2023-03-26T02:03:42;9.60;1.00
24446;DHT22;13347;50.984;5.822;2023-03-26T02:06:13;9.70;1.00
24446;DHT22;13347;50.984;5.822;2023-03-26T02:08:44;9.60;1.00
24446;DHT22;13347;50.984;5.822;2023-03-26T02:11:12;9.70;1.00
24446;DHT22;13347;50.984;5.822;2023-03-26T02:13:41;9.60;1.00
24446;DHT22;13347;50.984;5.822;2023-03-26T02:16:09;9.60;1.00
24446;DHT22;13347;50.984;5.822;2023-03-26T02:18:38;9.50;1.00
24446;DHT22;13347;50.984;5.822;2023-03-26T02:21:07;9.50;1.00
24446;DHT22;13347;50.984;5.822;2023-03-26T22:51:56;5.00;1.00
24446;DHT22;13347;50.984;5.822;2023-03-26T22:54:22;4.80;1.00
24446;DHT22;13347;50.984;5.822;2023-03-26T22:56:50;4.80;1.00
24446;DHT22;13347;50.984;5.822;2023-03-26T22:59:17;4.60;1.00
24446;DHT22;13347;50.984;5.822;2023-03-26T23:01:44;4.60;1.00
24446;DHT22;13347;50.984;5.822;2023-03-26T23:04:12;4.60;38.50
24446;DHT22;13347;50.984;5.822;2023-03-26T23:06:39;4.40;99.90
24446;DHT22;13347;50.984;5.822;2023-03-26T23:09:07;4.40;99.90
24446;DHT22;13347;50.984;5.822;2023-03-26T23:11:35;4.30;99.90
24446;DHT22;13347;50.984;5.822;2023-03-26T23:14:02;4.30;99.90
24446;DHT22;13347;50.984;5.822;2023-03-26T23:16:28;4.30;99.90
24446;DHT22;13347;50.984;5.822;2023-03-26T23:18:56;4.20;99.90
24446;DHT22;13347;50.984;5.822;2023-03-26T23:21:23;4.10;1.00
24446;DHT22;13347;50.984;5.822;2023-03-26T23:23:50;4.10;1.00
24446;DHT22;13347;50.984;5.822;2023-03-26T23:26:18;4.00;1.00
24446;DHT22;13347;50.984;5.822;2023-03-26T23:28:45;3.90;1.00
24446;DHT22;13347;50.984;5.822;2023-03-26T23:31:12;3.90;1.00
24446;DHT22;13347;50.984;5.822;2023-03-26T23:33:40;3.90;1.00
24446;DHT22;13347;50.984;5.822;2023-03-26T23:36:11;3.80;1.00
24446;DHT22;13347;50.984;5.822;2023-03-26T23:38:38;3.70;99.90
24446;DHT22;13347;50.984;5.822;2023-03-26T23:41:05;3.80;99.90
24446;DHT22;13347;50.984;5.822;2023-03-26T23:43:34;3.90;99.90
24446;DHT22;13347;50.984;5.822;2023-03-26T23:46:00;3.80;99.90
24446;DHT22;13347;50.984;5.822;2023-03-26T23:48:29;3.80;1.00
24446;DHT22;13347;50.984;5.822;2023-03-26T23:50:57;3.70;99.90
24446;DHT22;13347;50.984;5.822;2023-03-26T23:53:26;3.60;1.00
24446;DHT22;13347;50.984;5.822;2023-03-26T23:55:53;3.70;1.00
24446;DHT22;13347;50.984;5.822;2023-03-26T23:58:23;3.70;1.00
